Time;durP1;ratioP1;P1;durP2;ratioP2;P2;SDS_P1;SDS_P2;PMS_P1;PMS_P2;Temp;Humidity;BMP_temperature;BMP_pressure;BME280_temperature;BME280_humidity;BME280_pressure;Samples;Min_cycle;Max_cycle;Signal;HPM_P1;HPM_P2
2022/05/05 00:01:28;;;;;;;;;18.00;14.33;;;;;15.95;55.06;101473.81;5056756;28;45307;-62
2022/05/05 00:03:54;;;;;;;;;15.33;15.33;;;;;15.99;54.82;101469.94;5073051;28;45569;-63
2022/05/05 00:06:19;;;;;;;;;14.33;13.67;;;;;15.96;54.77;101471.97;5056089;27;47426;-61
2022/05/05 00:08:44;;;;;;;;;15.00;13.00;;;;;15.99;54.90;101469.94;5057608;28;45338;-61
2022/05/05 00:16:38;;;;;;;;;15.00;15.00;;;;;15.82;55.84;101479.09;5057122;28;45419;-63
2022/05/05 00:19:04;;;;;;;;;14.33;14.33;;;;;15.73;56.00;101481.50;5057150;28;45389;-64
2022/05/05 00:21:29;;;;;;;;;19.33;14.33;;;;;15.62;56.00;101487.53;5055745;28;45418;-61
2022/05/05 00:23:55;;;;;;;;;18.00;17.67;;;;;15.57;56.47;101485.13;5057562;28;45457;-55
2022/05/05 00:26:20;;;;;;;;;18.00;17.00;;;;;15.56;56.09;101479.84;5057361;28;45399;-63
2022/05/05 00:28:45;;;;;;;;;16.33;15.33;;;;;15.54;55.99;101484.44;5056955;28;45357;-65
2022/05/05 00:31:11;;;;;;;;;16.00;16.00;;;;;15.54;56.45;101485.31;5056841;28;45469;-60
2022/05/05 00:33:36;;;;;;;;;21.00;17.67;;;;;15.54;56.57;101481.78;5057196;28;45575;-55
2022/05/05 00:36:05;;;;;;;;;18.33;17.00;;;;;15.53;56.28;101486.28;5057253;27;46214;-60
2022/05/05 00:38:31;;;;;;;;;20.00;12.67;;;;;15.49;56.95;101475.81;5057228;28;45534;-60
2022/05/05 00:40:57;;;;;;;;;17.00;14.33;;;;;15.50;56.24;101485.59;5057017;28;45312;-62
2022/05/05 00:43:23;;;;;;;;;17.67;12.00;;;;;15.47;57.59;101475.91;5057443;28;45599;-58
2022/05/05 00:45:49;;;;;;;;;19.00;14.67;;;;;15.41;57.64;101479.00;5056742;28;45524;-61
2022/05/05 00:48:16;;;;;;;;;15.00;13.67;;;;;15.37;56.99;101479.28;5056670;28;45405;-58
2022/05/05 00:50:41;;;;;;;;;17.00;14.00;;;;;15.39;57.18;101490.78;5055248;28;45530;-60
2022/05/05 00:53:07;;;;;;;;;14.00;14.00;;;;;15.29;56.64;101475.25;5072357;28;45395;-57
2022/05/05 00:55:35;;;;;;;;;16.67;16.67;;;;;15.26;56.86;101485.31;5056468;28;45350;-61
2022/05/05 00:58:03;;;;;;;;;10.33;10.33;;;;;15.25;56.51;101495.16;5057547;28;45422;-58
2022/05/05 01:00:30;;;;;;;;;12.33;11.00;;;;;15.24;55.93;101492.59;5056838;28;45299;-56
2022/05/05 01:02:58;;;;;;;;;11.33;11.33;;;;;15.23;56.19;101482.78;5072506;28;45526;-57
2022/05/05 01:05:25;;;;;;;;;9.00;9.00;;;;;15.21;55.86;101488.25;5055109;27;47637;-58
2022/05/05 01:07:50;;;;;;;;;13.00;11.33;;;;;15.17;56.22;101484.03;5055160;28;45378;-59
2022/05/05 01:10:16;;;;;;;;;10.33;10.33;;;;;15.17;56.01;101486.72;5056360;28;45361;-61
2022/05/05 01:12:42;;;;;;;;;9.00;9.00;;;;;15.12;56.04;101494.19;5055231;27;45525;-60
2022/05/05 01:15:09;;;;;;;;;9.00;9.00;;;;;15.00;56.76;101493.09;5055868;28;45446;-58
2022/05/05 01:17:34;;;;;;;;;10.33;10.00;;;;;14.94;56.81;101496.13;5056170;28;45412;-58
2022/05/05 01:20:14;;;;;;;;;9.33;9.33;;;;;14.92;56.69;101491.84;5056162;28;45454;-56
2022/05/05 01:22:39;;;;;;;;;9.00;9.00;;;;;14.91;55.99;101490.13;5056290;28;45350;-62
2022/05/05 01:30:33;;;;;;;;;11.33;10.67;;;;;14.79;56.23;101490.84;5056053;28;45338;-61
2022/05/05 01:32:59;;;;;;;;;8.67;7.00;;;;;14.78;56.84;101494.47;5056723;28;45384;-60
2022/05/05 01:35:25;;;;;;;;;10.33;9.67;;;;;14.78;56.31;101489.97;5054941;27;47365;-64
2022/05/05 01:37:50;;;;;;;;;8.67;8.67;;;;;14.72;57.51;101483.19;5055834;28;45276;-65
2022/05/05 01:40:16;;;;;;;;;16.67;12.00;;;;;14.61;57.14;101487.44;5054933;28;45267;-59
2022/05/05 01:42:42;;;;;;;;;10.00;10.00;;;;;14.65;57.11;101483.63;5056227;28;45504;-60
2022/05/05 01:45:08;;;;;;;;;10.00;8.67;;;;;14.67;57.36;101485.25;5056094;28;46389;-59
2022/05/05 01:47:33;;;;;;;;;9.33;8.00;;;;;14.64;57.12;101482.75;5037483;28;45426;-62
2022/05/05 01:49:59;;;;;;;;;10.00;10.00;;;;;14.57;57.23;101486.75;5035848;27;45249;-63
2022/05/05 01:52:25;;;;;;;;;8.00;8.00;;;;;14.41;58.10;101489.41;5036658;28;45338;-63
2022/05/05 01:54:50;;;;;;;;;9.00;9.00;;;;;14.41;57.86;101480.53;5035913;28;45993;-65
2022/05/05 01:57:16;;;;;;;;;6.67;6.00;;;;;14.42;57.71;101490.28;5035482;28;57156;-62
2022/05/05 01:59:41;;;;;;;;;10.33;8.67;;;;;14.40;57.82;101497.53;5035770;28;45394;-59
2022/05/05 02:02:06;;;;;;;;;11.00;9.67;;;;;14.40;57.91;101489.50;5035848;28;45149;-61
2022/05/05 02:04:32;;;;;;;;;10.67;8.33;;;;;14.36;57.76;101488.84;5035664;28;45370;-59
2022/05/05 02:06:58;;;;;;;;;9.33;9.33;;;;;14.32;57.66;101481.03;5050084;28;45322;-64
2022/05/05 02:09:23;;;;;;;;;9.33;9.33;;;;;14.32;57.30;101486.41;5071933;27;45294;-62
2022/05/05 02:11:55;;;;;;;;;9.33;9.33;;;;;14.31;57.58;101506.09;5054945;28;45498;-64
2022/05/05 02:14:23;;;;;;;;;8.33;8.33;;;;;14.31;57.71;101500.72;5054311;27;45691;-66
2022/05/05 02:16:49;;;;;;;;;10.00;10.00;;;;;14.10;57.96;101460.91;5055543;28;45301;-58
2022/05/05 02:19:14;;;;;;;;;11.00;9.00;;;;;14.23;57.61;101487.81;5055792;28;45288;-60
2022/05/05 02:21:40;;;;;;;;;9.00;9.00;;;;;14.23;57.31;101487.81;5056063;28;45422;-57
2022/05/05 02:24:06;;;;;;;;;17.67;16.00;;;;;14.25;58.28;101501.09;5057589;28;45294;-60
2022/05/05 02:26:31;;;;;;;;;14.00;10.33;;;;;14.21;58.09;101487.03;5074993;28;45424;-63
2022/05/05 02:28:57;;;;;;;;;14.67;10.00;;;;;14.23;58.47;101492.28;5060125;28;45177;-61
2022/05/05 02:31:25;;;;;;;;;11.00;10.67;;;;;14.17;57.89;101489.00;5059688;28;45569;-57
2022/05/05 02:33:50;;;;;;;;;11.67;11.67;;;;;14.15;57.92;101480.22;5057532;28;45950;-55
2022/05/05 02:39:00;;;;;;;;;13.00;10.67;;;;;14.05;58.68;101470.09;5058991;28;45393;-62
2022/05/05 02:41:26;;;;;;;;;14.33;10.33;;;;;14.08;58.22;101470.81;5074867;27;45354;-65
2022/05/05 02:43:51;;;;;;;;;14.25;14.25;;;;;14.04;58.49;101465.72;5058944;28;45216;-61
2022/05/05 02:46:16;;;;;;;;;18.33;15.00;;;;;13.97;59.06;101459.88;5057617;28;45212;-62
2022/05/05 02:48:42;;;;;;;;;14.00;14.00;;;;;14.02;58.90;101481.84;5059228;28;45231;-59
2022/05/05 02:51:08;;;;;;;;;13.00;12.67;;;;;13.91;58.85;101462.00;5057835;28;45562;-64
2022/05/05 02:56:17;;;;;;;;;14.25;14.25;;;;;13.88;60.53;101484.44;5058384;28;45227;-58
2022/05/05 02:58:42;;;;;;;;;14.00;13.00;;;;;13.83;60.21;101481.16;5058511;28;45533;-61
2022/05/05 03:01:08;;;;;;;;;18.75;15.75;;;;;13.79;61.24;101484.94;5057158;28;45566;-58
2022/05/05 03:03:34;;;;;;;;;13.67;11.67;;;;;13.82;60.88;101482.13;5057856;28;45355;-61
2022/05/05 03:06:00;;;;;;;;;11.67;11.67;;;;;13.78;60.26;101472.53;5058536;28;45271;-64
2022/05/05 03:08:26;;;;;;;;;16.25;13.25;;;;;13.84;60.03;101491.78;5058584;28;45365;-63
2022/05/05 03:10:51;;;;;;;;;14.50;14.50;;;;;13.80;60.90;101484.88;5057222;28;45533;-64
2022/05/05 03:13:17;;;;;;;;;17.33;17.00;;;;;13.79;61.58;101487.59;5058658;28;45381;-59
2022/05/05 03:15:44;;;;;;;;;14.00;12.00;;;;;13.68;61.00;101480.22;5056805;28;45497;-58
2022/05/05 03:18:12;;;;;;;;;12.33;12.33;;;;;13.69;60.71;101481.06;5058348;28;45525;-53
2022/05/05 03:20:38;;;;;;;;;21.00;15.50;;;;;13.61;60.97;101467.25;5056725;28;45264;-58
2022/05/05 03:23:03;;;;;;;;;14.67;14.67;;;;;13.68;61.17;101480.22;5073354;28;46839;-56
2022/05/05 03:25:29;;;;;;;;;20.00;15.00;;;;;13.74;60.94;101479.00;5058344;28;45322;-57
2022/05/05 03:27:54;;;;;;;;;11.00;11.00;;;;;13.66;61.25;101475.88;5057990;28;45330;-57
2022/05/05 03:30:20;;;;;;;;;16.00;14.00;;;;;13.68;61.30;101487.38;5058237;28;45241;-61
2022/05/05 03:32:45;;;;;;;;;10.25;7.25;;;;;13.59;61.02;101478.03;5073319;28;45276;-57
2022/05/05 03:35:11;;;;;;;;;14.50;13.75;;;;;13.68;61.88;101490.03;5056848;28;45156;-63
2022/05/05 03:37:36;;;;;;;;;15.00;12.00;;;;;13.64;61.64;101483.97;5057997;28;45559;-65
2022/05/05 03:40:02;;;;;;;;;13.67;13.67;;;;;13.62;61.86;101482.34;5058104;28;45635;-62
2022/05/05 03:42:27;;;;;;;;;12.33;12.33;;;;;13.57;63.08;101491.47;5057682;27;45748;-65
2022/05/05 03:44:53;;;;;;;;;16.00;14.33;;;;;13.49;62.72;101490.16;5057646;28;45951;-64
2022/05/05 03:47:19;;;;;;;;;16.00;14.00;;;;;13.52;62.45;101506.88;5058165;27;45490;-63
2022/05/05 03:49:44;;;;;;;;;17.75;14.75;;;;;13.49;62.59;101499.03;5058301;28;45435;-60
2022/05/05 03:52:10;;;;;;;;;15.25;12.25;;;;;13.48;62.35;101491.97;5057542;27;46210;-63
2022/05/05 03:54:35;;;;;;;;;15.25;15.25;;;;;13.53;62.02;101497.91;5057632;28;45457;-66
2022/05/05 03:57:01;;;;;;;;;20.75;16.75;;;;;13.50;61.79;101499.91;5057876;28;45354;-60
2022/05/05 03:59:26;;;;;;;;;15.75;13.00;;;;;13.49;62.11;101500.84;5057559;28;45259;-60
2022/05/05 04:01:52;;;;;;;;;14.75;14.75;;;;;13.44;63.38;101506.44;5057619;28;45274;-60
2022/05/05 04:04:18;;;;;;;;;20.25;14.25;;;;;13.39;63.07;101497.78;5057807;28;45371;-56
2022/05/05 04:06:43;;;;;;;;;15.50;13.00;;;;;13.49;62.45;101506.19;5057705;28;45360;-59
2022/05/05 04:09:10;;;;;;;;;14.25;14.00;;;;;13.47;63.08;101503.59;5057560;28;45355;-62
2022/05/05 04:11:36;;;;;;;;;19.75;15.00;;;;;13.47;62.34;101506.28;5057299;28;45446;-61
2022/05/05 04:14:03;;;;;;;;;18.25;14.50;;;;;13.48;62.79;101510.66;5057491;28;45535;-63
2022/05/05 04:16:31;;;;;;;;;14.00;14.00;;;;;13.52;62.63;101508.69;5057274;27;45523;-61
2022/05/05 04:18:56;;;;;;;;;14.00;13.00;;;;;13.51;62.13;101506.97;5057472;28;45402;-63
2022/05/05 04:21:21;;;;;;;;;13.00;10.67;;;;;13.50;62.75;101508.78;5056717;27;45357;-63
2022/05/05 04:23:47;;;;;;;;;14.67;13.00;;;;;13.55;62.43;101509.41;5057366;28;45318;-63
2022/05/05 04:26:14;;;;;;;;;15.50;13.75;;;;;13.56;62.81;101511.13;5057421;28;45326;-61
2022/05/05 04:28:42;;;;;;;;;8.00;6.75;;;;;13.48;62.53;101512.47;5057304;28;45333;-59
2022/05/05 04:31:10;;;;;;;;;13.00;13.00;;;;;13.54;63.06;101530.84;5056791;28;46322;-60
2022/05/05 04:33:37;;;;;;;;;19.50;17.00;;;;;13.40;63.95;101518.22;5055347;28;45422;-55
2022/05/05 04:36:03;;;;;;;;;15.75;13.00;;;;;13.41;63.76;101516.41;5057262;28;45331;-58
2022/05/05 04:38:28;;;;;;;;;15.00;12.75;;;;;13.42;64.21;101527.03;5057166;28;45351;-57
2022/05/05 04:40:53;;;;;;;;;16.25;14.75;;;;;13.45;63.27;101526.00;5056646;28;45400;-60
2022/05/05 04:43:19;;;;;;;;;15.25;14.25;;;;;13.32;64.76;101520.44;5055495;28;45471;-61
2022/05/05 04:45:44;;;;;;;;;14.00;13.75;;;;;13.24;64.29;101522.66;5056866;28;45838;-63
2022/05/05 04:48:10;;;;;;;;;15.75;14.75;;;;;13.35;63.81;101525.63;5056942;28;45374;-59
2022/05/05 04:50:35;;;;;;;;;15.75;15.75;;;;;13.36;63.81;101531.84;5072666;28;45354;-56
2022/05/05 04:53:01;;;;;;;;;14.25;13.00;;;;;13.30;64.03;101522.34;5072551;28;45299;-62
2022/05/05 04:55:26;;;;;;;;;21.67;20.67;;;;;13.36;63.69;101537.19;5056755;28;45455;-59
2022/05/05 04:57:51;;;;;;;;;21.00;18.00;;;;;13.30;64.21;101532.16;5056800;28;45655;-58
2022/05/05 05:00:17;;;;;;;;;25.25;21.25;;;;;13.31;64.18;101534.75;5072014;28;45972;-60
2022/05/05 05:02:43;;;;;;;;;21.25;18.50;;;;;13.23;65.04;101515.59;5056433;28;45279;-57
2022/05/05 05:05:08;;;;;;;;;21.25;21.25;;;;;13.18;66.78;101539.88;5072299;28;45270;-59
2022/05/05 05:07:33;;;;;;;;;22.50;18.75;;;;;13.15;66.19;101549.78;5056332;28;45659;-62
2022/05/05 05:10:00;;;;;;;;;26.50;21.75;;;;;13.22;65.47;101553.94;5056130;27;45366;-58
2022/05/05 05:12:25;;;;;;;;;19.50;18.50;;;;;13.21;65.61;101538.84;5056091;28;45424;-57
2022/05/05 05:14:51;;;;;;;;;23.50;19.75;;;;;13.16;65.44;101524.84;5056522;28;45429;-59
2022/05/05 05:17:16;;;;;;;;;25.75;19.25;;;;;13.20;65.69;101532.63;5056963;28;45331;-54
2022/05/05 05:19:41;;;;;;;;;25.50;20.25;;;;;13.27;65.73;101543.84;5056479;28;45704;-59
2022/05/05 05:22:07;;;;;;;;;22.00;19.25;;;;;13.37;65.18;101545.09;5056326;28;45427;-61
2022/05/05 05:24:33;;;;;;;;;26.00;19.00;;;;;13.47;64.88;101559.72;5055327;28;45154;-58
2022/05/05 05:26:58;;;;;;;;;26.00;20.00;;;;;13.48;65.58;101564.13;5056185;28;45259;-60
2022/05/05 05:29:24;;;;;;;;;22.75;22.75;;;;;13.51;65.31;101573.78;5056137;28;45290;-57
2022/05/05 05:31:49;;;;;;;;;22.00;20.25;;;;;13.27;66.35;101539.38;5055578;28;45267;-59
2022/05/05 05:34:14;;;;;;;;;27.00;21.00;;;;;13.41;65.82;101565.41;5055933;28;45353;-59
2022/05/05 05:36:40;;;;;;;;;24.25;22.25;;;;;13.41;65.88;101570.75;5056163;28;45610;-58
2022/05/05 05:39:05;;;;;;;;;24.75;21.50;;;;;13.45;65.32;101568.78;5071539;28;46943;-63
2022/05/05 05:41:30;;;;;;;;;20.75;19.75;;;;;13.45;65.60;101580.31;5055671;28;45585;-62
2022/05/05 05:43:56;;;;;;;;;25.50;21.25;;;;;13.39;65.50;101575.28;5056129;28;45310;-58
2022/05/05 05:46:21;;;;;;;;;21.00;20.50;;;;;13.36;66.04;101583.47;5054898;28;45569;-60
2022/05/05 05:48:47;;;;;;;;;28.75;25.00;;;;;13.38;65.63;101573.56;5055603;27;46301;-56
2022/05/05 05:51:13;;;;;;;;;28.50;24.25;;;;;13.43;65.51;101571.53;5071306;28;45815;-55
2022/05/05 05:53:38;;;;;;;;;25.00;22.75;;;;;13.45;66.99;101583.00;5054475;28;45415;-55
2022/05/05 05:56:04;;;;;;;;;23.00;23.00;;;;;13.40;66.96;101577.00;5056156;28;45508;-60
2022/05/05 05:58:29;;;;;;;;;27.00;24.25;;;;;13.48;66.74;101580.16;5056396;27;46167;-61
2022/05/05 06:00:54;;;;;;;;;33.00;26.50;;;;;13.59;66.19;101582.25;5059218;28;45425;-60
2022/05/05 06:06:04;;;;;;;;;30.25;26.75;;;;;13.70;66.19;101576.34;5059382;28;45448;-59
2022/05/05 06:08:30;;;;;;;;;26.50;26.25;;;;;13.68;66.10;101575.56;5059113;27;46051;-60
2022/05/05 06:10:56;;;;;;;;;27.00;23.25;;;;;13.75;65.74;101575.16;5059301;28;45314;-59
2022/05/05 06:13:21;;;;;;;;;26.50;21.50;;;;;13.82;66.05;101568.53;5059291;27;45398;-61
2022/05/05 06:15:50;;;;;;;;;23.00;22.00;;;;;13.93;65.65;101583.97;5075376;27;45304;-58
2022/05/05 06:18:15;;;;;;;;;25.50;21.50;;;;;13.84;66.24;101576.47;5059057;27;45488;-57
2022/05/05 06:20:40;;;;;;;;;25.50;23.25;;;;;13.81;65.77;101576.66;5073981;28;45489;-55
2022/05/05 06:23:06;;;;;;;;;33.50;23.50;;;;;13.80;66.88;101580.25;5059176;28;45314;-59
2022/05/05 06:25:31;;;;;;;;;30.50;25.00;;;;;13.85;66.52;101588.91;5059311;28;45265;-60
2022/05/05 06:27:58;;;;;;;;;29.50;27.50;;;;;13.89;65.78;101579.75;5059100;28;46747;-62
2022/05/05 06:30:23;;;;;;;;;29.75;26.00;;;;;13.93;65.47;101583.97;5074685;27;45398;-61
2022/05/05 06:32:49;;;;;;;;;35.50;27.00;;;;;13.92;65.05;101595.63;5059155;28;45357;-60
2022/05/05 06:35:14;;;;;;;;;25.25;23.75;;;;;14.00;65.33;101595.22;5058847;28;45303;-63
2022/05/05 06:37:40;;;;;;;;;26.50;26.25;;;;;13.84;66.79;101579.16;5058674;27;47394;-60
2022/05/05 06:40:06;;;;;;;;;29.25;24.50;;;;;13.92;66.92;101598.28;5058663;27;45404;-61
2022/05/05 06:42:32;;;;;;;;;34.00;24.75;;;;;13.91;66.12;101593.91;5057122;28;45362;-59
2022/05/05 06:44:59;;;;;;;;;24.00;22.25;;;;;14.00;65.32;101595.22;5058835;28;45630;-63
2022/05/05 06:47:25;;;;;;;;;29.75;25.00;;;;;14.08;65.66;101601.88;5073893;27;45324;-60
2022/05/05 06:49:51;;;;;;;;;30.00;25.25;;;;;14.15;65.16;101605.94;5058107;28;45275;-60
2022/05/05 06:52:16;;;;;;;;;26.00;23.50;;;;;14.25;65.52;101610.78;5058020;27;45332;-60
2022/05/05 06:54:42;;;;;;;;;25.00;23.75;;;;;14.17;65.76;101609.38;5058113;28;45485;-61
2022/05/05 06:57:07;;;;;;;;;30.50;25.25;;;;;14.15;66.45;101608.63;5058687;28;46219;-62
2022/05/05 06:59:33;;;;;;;;;29.00;23.75;;;;;14.23;65.56;101615.38;5073793;27;45406;-63
2022/05/05 07:02:02;;;;;;;;;51.00;39.25;;;;;14.31;65.52;101613.13;5058451;27;45401;-57
2022/05/05 07:07:14;;;;;;;;;25.75;24.50;;;;;14.28;65.27;101613.28;5056601;28;45755;-58
2022/05/05 07:12:25;;;;;;;;;31.75;28.25;;;;;14.26;65.28;101615.19;5058098;28;45297;-55
2022/05/05 07:14:51;;;;;;;;;32.25;28.00;;;;;14.31;66.26;101627.34;5057709;28;45576;-56
2022/05/05 07:17:16;;;;;;;;;36.00;32.00;;;;;14.13;67.04;101634.59;5057292;28;46315;-59
2022/05/05 07:19:42;;;;;;;;;31.50;25.25;;;;;14.10;66.90;101632.09;5058800;28;45161;-67
2022/05/05 07:22:07;;;;;;;;;28.75;25.00;;;;;14.23;65.56;101621.59;5057382;28;45405;-62
2022/05/05 07:24:33;;;;;;;;;31.00;26.50;;;;;14.27;65.22;101628.50;5058291;28;46120;-60
2022/05/05 07:27:01;;;;;;;;;28.75;27.50;;;;;14.33;65.66;101632.66;5057699;28;45412;-57
2022/05/05 07:29:26;;;;;;;;;28.75;25.00;;;;;14.28;66.29;101629.34;5057844;28;45434;-62
2022/05/05 07:31:52;;;;;;;;;32.00;28.33;;;;;14.43;65.34;101634.72;5058154;28;45278;-60
2022/05/05 07:34:20;;;;;;;;;31.00;27.00;;;;;14.54;65.16;101636.81;5058644;28;45489;-61
2022/05/05 07:36:46;;;;;;;;;29.75;28.00;;;;;14.71;64.28;101638.53;5057994;28;45303;-62
2022/05/05 07:39:12;;;;;;;;;34.50;28.25;;;;;14.81;64.12;101634.41;5058475;28;45216;-57
2022/05/05 07:41:38;;;;;;;;;27.00;24.00;;;;;14.90;63.48;101635.69;5057903;28;45326;-64
2022/05/05 07:44:05;;;;;;;;;28.67;27.67;;;;;14.98;63.92;101634.31;5057601;28;45373;-61
2022/05/05 07:46:32;;;;;;;;;22.33;22.00;;;;;15.13;63.04;101639.72;5057102;27;46199;-64
2022/05/05 07:48:58;;;;;;;;;27.00;25.33;;;;;15.10;63.07;101634.53;5056458;27;45307;-60
2022/05/05 07:51:23;;;;;;;;;27.67;24.67;;;;;15.26;62.44;101636.25;5057691;28;45343;-64
2022/05/05 07:56:32;;;;;;;;;26.00;20.00;;;;;15.34;62.00;101636.63;5057524;28;45305;-63
2022/05/05 07:58:58;;;;;;;;;40.00;32.50;;;;;15.35;61.86;101641.03;5057202;28;45300;-63
2022/05/05 08:01:23;;;;;;;;;35.00;25.25;;;;;15.31;61.92;101639.50;5057727;28;45293;-58
2022/05/05 08:03:49;;;;;;;;;25.67;20.33;;;;;15.18;61.98;101649.22;5056289;27;45327;-61
2022/05/05 08:06:14;;;;;;;;;28.50;25.75;;;;;15.14;61.61;101647.69;5072861;27;47639;-61
2022/05/05 08:08:40;;;;;;;;;31.00;25.00;;;;;15.07;62.11;101638.25;5057168;28;45357;-59
2022/05/05 08:11:05;;;;;;;;;19.33;17.00;;;;;15.23;62.04;101648.94;5057288;28;45258;-62
2022/05/05 08:13:34;;;;;;;;;28.33;26.33;;;;;15.35;61.60;101657.13;5057194;28;45542;-60
2022/05/05 08:15:59;;;;;;;;;27.33;25.67;;;;;15.40;60.80;101645.28;5056943;28;45590;-60
2022/05/05 08:18:24;;;;;;;;;27.00;22.67;;;;;15.44;61.13;101645.00;5056907;27;45425;-59
2022/05/05 08:20:51;;;;;;;;;29.33;23.33;;;;;15.61;60.68;101652.06;5056243;28;45394;-64
2022/05/05 08:23:16;;;;;;;;;26.33;24.33;;;;;15.72;60.27;101654.09;5072282;27;45448;-62
2022/05/05 08:28:28;;;;;;;;;31.33;29.33;;;;;16.18;58.86;101660.19;5056680;28;45330;-65
2022/05/05 08:30:55;;;;;;;;;28.33;27.33;;;;;16.39;58.02;101650.75;5055387;28;45390;-60
2022/05/05 08:33:20;;;;;;;;;22.67;22.33;;;;;16.84;57.55;101645.25;5057171;28;45323;-63
2022/05/05 08:35:46;;;;;;;;;30.33;28.00;;;;;17.27;55.62;101649.50;5056831;28;45243;-58
2022/05/05 08:38:13;;;;;;;;;27.33;24.67;;;;;17.43;54.84;101646.63;5055537;28;45239;-61
2022/05/05 08:40:40;;;;;;;;;27.00;24.00;;;;;17.58;55.33;101647.44;5056865;28;45757;-59
2022/05/05 08:43:06;;;;;;;;;21.67;20.33;;;;;17.98;53.73;101651.78;5055590;28;45576;-65
2022/05/05 08:45:33;;;;;;;;;24.33;18.33;;;;;18.26;52.15;101649.81;5071904;28;45448;-64
2022/05/05 08:48:01;;;;;;;;;18.33;17.33;;;;;18.49;52.16;101649.03;5056337;28;45267;-57
2022/05/05 08:50:28;;;;;;;;;22.67;20.67;;;;;18.77;51.12;101647.06;5056650;28;45293;-63
2022/05/05 08:52:53;;;;;;;;;21.00;20.00;;;;;18.86;51.18;101644.50;5056477;28;45674;-65
2022/05/05 08:55:20;;;;;;;;;17.67;17.67;;;;;19.05;49.85;101648.56;5056280;28;45466;-60
2022/05/05 08:57:47;;;;;;;;;20.67;19.33;;;;;19.11;49.52;101648.94;5056544;28;45362;-62
2022/05/05 09:00:14;;;;;;;;;19.00;16.00;;;;;19.25;49.32;101650.59;5056590;28;45326;-56
2022/05/05 09:02:44;;;;;;;;;21.33;19.67;;;;;19.13;49.17;101662.31;5056241;28;45547;-60
2022/05/05 09:05:09;;;;;;;;;25.00;21.67;;;;;19.22;50.42;101655.38;5055972;28;45702;-57
2022/05/05 09:07:48;;;;;;;;;23.33;21.67;;;;;19.23;49.18;101657.94;5055755;28;45427;-59
2022/05/05 09:10:16;;;;;;;;;20.33;16.67;;;;;18.97;48.89;101659.03;5056715;27;45472;-56
2022/05/05 09:12:41;;;;;;;;;18.67;17.00;;;;;18.66;49.53;101658.63;5056046;28;45583;-60
2022/05/05 09:15:10;;;;;;;;;17.33;14.00;;;;;18.45;49.56;101661.00;5054076;28;46027;-58
2022/05/05 09:17:36;;;;;;;;;16.00;14.00;;;;;18.45;50.81;101660.13;5071613;27;45347;-63
2022/05/05 09:20:06;;;;;;;;;15.00;13.00;;;;;18.56;49.32;101642.22;5056400;28;45510;-59
2022/05/05 09:22:32;;;;;;;;;13.67;11.67;;;;;19.06;48.52;101655.66;5056075;27;45519;-61
2022/05/05 09:24:57;;;;;;;;;15.00;15.00;;;;;19.47;47.01;101654.38;5071531;27;47505;-63
2022/05/05 09:27:26;;;;;;;;;13.33;13.33;;;;;19.69;46.07;101649.94;5056061;28;45459;-61
2022/05/05 09:30:09;;;;;;;;;12.33;11.33;;;;;19.65;46.51;101658.38;5055058;27;45411;-61
2022/05/05 09:32:41;;;;;;;;;13.00;13.00;;;;;19.81;46.60;101649.97;5070747;27;45677;-62
2022/05/05 09:35:13;;;;;;;;;12.00;10.67;;;;;19.83;45.21;101651.56;5055495;28;46050;-65
2022/05/05 09:37:54;;;;;;;;;14.00;10.67;;;;;20.01;45.17;101654.63;5054268;27;45330;-62
2022/05/05 09:40:21;;;;;;;;;12.33;11.00;;;;;20.15;45.52;101656.25;5054643;27;45370;-64
2022/05/05 09:42:47;;;;;;;;;13.33;13.33;;;;;20.32;45.47;101650.38;5056068;28;45460;-62
2022/05/05 09:45:17;;;;;;;;;13.33;11.33;;;;;20.63;43.36;101650.63;5055264;28;45458;-62
2022/05/05 09:47:50;;;;;;;;;11.00;11.00;;;;;20.93;44.23;101642.66;5055775;27;45361;-64
2022/05/05 09:50:19;;;;;;;;;11.00;11.00;;;;;21.09;42.64;101653.94;5055699;27;45673;-63
2022/05/05 09:58:16;;;;;;;;;16.67;12.67;;;;;20.51;43.37;101647.94;5055542;28;45330;-65
2022/05/05 10:01:00;;;;;;;;;12.00;10.67;;;;;20.41;43.57;101652.31;5055883;27;45488;-59
2022/05/05 10:06:34;;;;;;;;;10.00;10.00;;;;;20.04;43.73;101665.19;5055235;28;45834;-62
2022/05/05 10:09:12;;;;;;;;;9.67;8.33;;;;;19.95;44.57;101660.53;5055427;28;45294;-62
2022/05/05 10:11:38;;;;;;;;;7.67;7.67;;;;;20.18;44.94;101647.88;5071155;27;45521;-65
2022/05/05 10:14:06;;;;;;;;;9.00;8.33;;;;;20.48;43.21;101653.59;5055845;28;45553;-63
2022/05/05 10:16:31;;;;;;;;;8.00;8.00;;;;;20.40;42.97;101650.59;5053500;28;45662;-64
2022/05/05 10:18:58;;;;;;;;;7.00;7.00;;;;;20.31;42.37;101652.22;5054261;28;45411;-59
2022/05/05 10:21:37;;;;;;;;;8.67;8.67;;;;;19.92;42.12;101656.25;5055323;27;45240;-57
2022/05/05 10:24:22;;;;;;;;;7.67;7.33;;;;;19.73;43.26;101659.50;5055457;28;45544;-58
2022/05/05 10:26:52;;;;;;;;;7.33;7.33;;;;;19.59;43.25;101661.56;5055523;28;45332;-58
2022/05/05 10:29:42;;;;;;;;;6.33;6.33;;;;;19.48;43.03;101662.34;5055600;28;45430;-62
2022/05/05 10:32:19;;;;;;;;;8.00;8.00;;;;;19.73;42.87;101656.81;5055251;28;45274;-58
2022/05/05 10:34:51;;;;;;;;;7.00;7.00;;;;;19.84;42.95;101657.81;5053634;28;45625;-59
2022/05/05 10:37:22;;;;;;;;;6.67;6.33;;;;;19.90;43.32;101652.78;5070473;28;45520;-61
2022/05/05 10:40:01;;;;;;;;;11.33;8.00;;;;;19.90;43.38;101663.56;5055145;28;45487;-63
2022/05/05 10:42:26;;;;;;;;;7.33;7.33;;;;;19.79;43.75;101657.28;5055078;28;45285;-64
2022/05/05 10:45:06;;;;;;;;;6.67;6.67;;;;;19.71;43.96;101658.75;5056779;28;45622;-60
2022/05/05 10:47:47;;;;;;;;;8.33;7.00;;;;;19.63;43.88;101660.31;5058392;28;46063;-66
2022/05/05 10:50:38;;;;;;;;;9.67;9.67;;;;;19.65;43.85;101663.75;5058607;28;45276;-58
2022/05/05 10:53:04;;;;;;;;;7.00;7.00;;;;;19.57;43.92;101655.41;5074434;27;45252;-58
2022/05/05 10:55:42;;;;;;;;;5.67;5.67;;;;;19.59;43.82;101645.38;5058734;27;45632;-61
2022/05/05 10:58:10;;;;;;;;;5.33;4.00;;;;;19.65;44.18;101642.16;5058180;28;46135;-56
2022/05/05 11:00:40;;;;;;;;;8.00;8.00;;;;;19.79;43.36;101647.34;5073898;27;45339;-59
2022/05/05 11:03:12;;;;;;;;;10.00;8.67;;;;;19.89;43.49;101650.19;5058190;28;45730;-58
2022/05/05 11:05:38;;;;;;;;;7.67;7.33;;;;;20.01;43.17;101644.69;5058246;28;45598;-61
2022/05/05 11:08:09;;;;;;;;;6.00;6.00;;;;;20.08;42.45;101644.22;5056854;28;45349;-62
2022/05/05 11:10:41;;;;;;;;;8.67;7.00;;;;;20.00;41.24;101648.38;5056599;27;45460;-59
2022/05/05 11:13:07;;;;;;;;;4.00;4.00;;;;;19.84;42.10;101644.31;5057951;28;45241;-60
2022/05/05 11:21:33;;;;;;;;;8.67;6.00;;;;;19.25;42.83;101638.94;5057490;28;45408;-64
2022/05/05 11:24:00;;;;;;;;;6.67;6.67;;;;;19.26;43.12;101652.31;5058059;28;45274;-58
2022/05/05 11:26:26;;;;;;;;;6.67;5.67;;;;;19.11;42.92;101656.16;5058059;27;45524;-54
2022/05/05 11:28:53;;;;;;;;;4.00;4.00;;;;;19.00;43.09;101654.28;5056927;27;45485;-64
2022/05/05 11:31:28;;;;;;;;;8.67;8.00;;;;;19.03;43.56;101645.97;5057753;28;45422;-61
2022/05/05 11:34:00;;;;;;;;;7.00;7.00;;;;;19.09;43.29;101628.47;5073773;27;45270;-57
2022/05/05 11:36:30;;;;;;;;;5.67;4.33;;;;;19.23;43.06;101643.59;5058144;28;45308;-61
2022/05/05 11:38:56;;;;;;;;;5.00;5.00;;;;;19.20;43.09;101646.53;5058021;28;45283;-62
2022/05/05 11:41:22;;;;;;;;;5.00;5.00;;;;;19.20;42.88;101652.78;5056454;27;45262;-63
2022/05/05 11:46:32;;;;;;;;;8.00;6.00;;;;;19.12;43.39;101649.78;5058264;28;45393;-64
2022/05/05 11:48:59;;;;;;;;;5.00;5.00;;;;;19.05;42.83;101638.63;5073108;27;46689;-65
2022/05/05 11:51:30;;;;;;;;;5.00;5.00;;;;;18.92;43.22;101639.66;5073487;27;45499;-62
2022/05/05 11:53:59;;;;;;;;;6.00;5.00;;;;;18.98;43.61;101641.88;5057809;27;45367;-61
2022/05/05 11:56:26;;;;;;;;;5.33;5.33;;;;;19.03;43.30;101628.94;5056940;27;45453;-56
2022/05/05 12:01:41;;;;;;;;;9.67;5.00;;;;;18.91;42.72;101611.84;5057142;28;45344;-57